createdAt,value
2022-12-17T00:01:07.478Z,87.65
2022-12-17T00:03:53.514Z,87.40
2022-12-17T00:06:41.792Z,87.37
2022-12-17T00:09:27.772Z,87.05
2022-12-17T00:12:13.828Z,86.99
2022-12-17T00:15:00.079Z,87.18
2022-12-17T00:17:46.240Z,87.35
2022-12-17T00:20:32.054Z,87.28
2022-12-17T00:23:20.042Z,87.13
2022-12-17T00:26:11.166Z,86.87
2022-12-17T00:28:58.003Z,86.68
2022-12-17T00:31:48.916Z,86.56
2022-12-17T00:34:34.998Z,86.23
2022-12-17T00:37:20.728Z,86.19
2022-12-17T00:40:06.549Z,86.08
2022-12-17T00:42:52.383Z,85.99
2022-12-17T00:45:40.236Z,85.97
2022-12-17T00:48:29.639Z,85.92
2022-12-17T00:51:15.718Z,86.01
2022-12-17T00:54:02.085Z,86.54
2022-12-17T00:56:48.168Z,86.79
2022-12-17T00:59:34.026Z,86.98
2022-12-17T01:02:06.361Z,86.95
2022-12-17T01:04:52.521Z,86.88
2022-12-17T01:07:31.301Z,86.84
2022-12-17T01:10:17.575Z,86.93
2022-12-17T01:13:03.835Z,86.75
2022-12-17T01:15:51.409Z,86.42
2022-12-17T01:18:39.185Z,86.34
2022-12-17T01:21:26.068Z,85.94
2022-12-17T01:24:12.369Z,85.57
2022-12-17T01:26:58.562Z,85.47
2022-12-17T01:29:44.460Z,85.40
2022-12-17T01:32:30.801Z,85.35
2022-12-17T01:35:16.928Z,85.42
2022-12-17T01:38:03.970Z,85.49
2022-12-17T01:40:50.293Z,85.63
2022-12-17T01:43:55.459Z,85.66
2022-12-17T01:46:44.753Z,85.83
2022-12-17T01:49:32.289Z,85.86
2022-12-17T01:52:19.364Z,85.97
2022-12-17T01:55:05.782Z,86.18
2022-12-17T01:57:52.620Z,86.10
2022-12-17T02:00:38.967Z,86.12
2022-12-17T02:03:34.260Z,86.25
2022-12-17T02:06:35.413Z,86.13
2022-12-17T02:09:33.035Z,86.29
2022-12-17T02:12:53.315Z,86.43
2022-12-17T02:15:47.881Z,86.31
2022-12-17T02:18:39.192Z,86.28
2022-12-17T02:21:26.459Z,85.95
2022-12-17T02:24:42.698Z,85.46
2022-12-17T02:27:30.422Z,85.37
2022-12-17T02:30:24.050Z,85.06
2022-12-17T02:33:11.612Z,85.29
2022-12-17T02:36:02.980Z,85.23
2022-12-17T02:38:51.407Z,85.22
2022-12-17T02:41:46.774Z,85.13
2022-12-17T02:44:38.029Z,85.23
2022-12-17T02:47:27.898Z,85.22
2022-12-17T02:50:15.181Z,85.39
2022-12-17T02:53:05.591Z,85.40
2022-12-17T02:55:53.511Z,85.51
2022-12-17T02:58:40.362Z,85.60
2022-12-17T03:01:27.201Z,85.85
2022-12-17T03:04:14.436Z,86.00
2022-12-17T03:07:00.588Z,86.27
2022-12-17T03:09:47.036Z,86.28
2022-12-17T03:12:33.301Z,86.37
2022-12-17T03:15:19.426Z,86.24
2022-12-17T03:18:05.454Z,86.09
2022-12-17T03:20:51.180Z,86.00
2022-12-17T03:23:37.397Z,85.90
2022-12-17T03:26:23.975Z,85.76
2022-12-17T03:29:10.207Z,85.40
2022-12-17T03:31:56.386Z,85.31
2022-12-17T03:34:42.520Z,84.89
2022-12-17T03:37:28.934Z,84.54
2022-12-17T03:40:15.135Z,84.27
2022-12-17T03:43:00.956Z,84.09
2022-12-17T03:45:47.513Z,83.90
2022-12-17T03:48:34.460Z,83.75
2022-12-17T03:51:21.214Z,83.76
2022-12-17T03:54:07.164Z,83.68
2022-12-17T03:56:53.413Z,83.74
2022-12-17T03:59:39.702Z,83.80
2022-12-17T04:02:26.197Z,83.81
2022-12-17T04:05:16.672Z,83.87
2022-12-17T04:08:00.672Z,84.01
2022-12-17T04:10:47.278Z,84.06
2022-12-17T04:13:38.820Z,84.40
2022-12-17T04:16:21.613Z,84.74
2022-12-17T04:19:00.987Z,84.94
2022-12-17T04:21:47.471Z,85.16
2022-12-17T04:24:34.250Z,85.23
2022-12-17T04:27:27.383Z,85.35
2022-12-17T04:30:11.800Z,85.18
2022-12-17T04:33:00.029Z,85.09
2022-12-17T04:35:49.658Z,85.00
2022-12-17T04:38:36.785Z,84.67
2022-12-17T04:41:23.958Z,84.30
2022-12-17T04:44:10.510Z,84.02
2022-12-17T04:46:56.331Z,84.00
2022-12-17T04:49:42.457Z,83.99
2022-12-17T04:52:28.831Z,83.92
2022-12-17T04:55:14.842Z,83.86
2022-12-17T04:58:01.051Z,83.87
2022-12-17T05:00:47.574Z,84.11
2022-12-17T05:03:35.726Z,84.59
2022-12-17T05:06:22.464Z,84.38
2022-12-17T05:09:08.701Z,84.53
2022-12-17T05:11:54.381Z,84.76
2022-12-17T05:14:40.531Z,84.97
2022-12-17T05:17:26.865Z,85.08
2022-12-17T05:20:13.195Z,85.33
2022-12-17T05:22:59.328Z,85.57
2022-12-17T05:25:45.593Z,85.78
2022-12-17T05:28:31.590Z,85.80
2022-12-17T05:31:18.183Z,85.62
2022-12-17T05:34:04.879Z,85.74
2022-12-17T05:36:50.910Z,85.48
2022-12-17T05:39:36.881Z,85.39
2022-12-17T05:42:22.916Z,85.38
2022-12-17T05:45:09.289Z,85.34
2022-12-17T05:47:55.718Z,85.30
2022-12-17T05:50:41.783Z,85.42
2022-12-17T05:53:28.608Z,85.28
2022-12-17T05:56:14.813Z,85.26
2022-12-17T05:59:00.604Z,85.29
2022-12-17T06:01:46.965Z,85.33
2022-12-17T06:04:32.894Z,85.33
2022-12-17T06:07:18.621Z,85.35
2022-12-17T06:10:04.551Z,85.38
2022-12-17T06:12:50.409Z,85.42
2022-12-17T06:15:36.077Z,85.41
2022-12-17T06:18:22.538Z,85.51
2022-12-17T06:21:10.493Z,85.52
2022-12-17T06:23:56.178Z,85.60
2022-12-17T06:26:42.639Z,85.75
2022-12-17T06:29:28.862Z,85.86
2022-12-17T06:32:15.228Z,86.01
2022-12-17T06:35:01.930Z,85.98
2022-12-17T06:37:48.015Z,86.04
2022-12-17T06:40:34.898Z,86.05
2022-12-17T06:43:21.469Z,86.00
2022-12-17T06:46:09.968Z,85.97
2022-12-17T06:48:55.786Z,85.95
2022-12-17T06:51:42.271Z,85.71
2022-12-17T06:54:28.454Z,85.68
2022-12-17T06:57:14.340Z,85.64
2022-12-17T07:00:00.346Z,85.75
2022-12-17T07:02:46.443Z,85.73
2022-12-17T07:05:33.278Z,85.70
2022-12-17T07:08:19.515Z,85.74
2022-12-17T07:11:05.756Z,86.15
2022-12-17T07:13:51.688Z,86.49
2022-12-17T07:16:37.428Z,86.62
2022-12-17T07:19:27.276Z,86.84
2022-12-17T07:22:10.260Z,86.92
2022-12-17T07:24:56.262Z,86.99
2022-12-17T07:27:42.998Z,87.53
2022-12-17T07:30:30.400Z,88.48
2022-12-17T07:33:22.140Z,89.75
2022-12-17T07:36:10.888Z,90.46
2022-12-17T07:38:57.136Z,91.11
2022-12-17T07:41:44.277Z,92.09
2022-12-17T07:44:30.372Z,91.72
2022-12-17T07:47:16.544Z,91.57
2022-12-17T07:49:57.849Z,91.48
2022-12-17T07:52:43.587Z,91.45
2022-12-17T07:55:29.427Z,91.32
2022-12-17T07:58:22.515Z,91.10
2022-12-17T08:01:08.662Z,91.02
2022-12-17T08:03:55.029Z,90.79
2022-12-17T08:06:41.047Z,90.66
2022-12-17T08:09:27.215Z,90.31
2022-12-17T08:12:13.400Z,89.96
2022-12-17T08:14:59.613Z,89.73
2022-12-17T08:17:45.980Z,89.34
2022-12-17T08:20:32.506Z,89.08
2022-12-17T08:23:18.887Z,88.80
2022-12-17T08:26:04.821Z,88.80
2022-12-17T08:28:51.727Z,88.77
2022-12-17T08:31:38.404Z,88.73
2022-12-17T08:34:24.494Z,88.72
2022-12-17T08:37:11.383Z,89.00
2022-12-17T08:39:56.152Z,88.99
2022-12-17T08:42:42.440Z,89.08
2022-12-17T08:45:29.293Z,89.35
2022-12-17T08:48:26.331Z,89.48
2022-12-17T08:51:13.921Z,89.69
2022-12-17T08:54:00.381Z,89.72
2022-12-17T08:56:46.183Z,90.00
2022-12-17T08:59:32.263Z,90.05
2022-12-17T09:02:18.967Z,90.04
2022-12-17T09:05:05.114Z,89.42
2022-12-17T09:07:51.393Z,89.41
2022-12-17T09:10:37.781Z,89.48
2022-12-17T09:13:24.153Z,89.62
2022-12-17T09:16:12.402Z,89.71
2022-12-17T09:18:59.942Z,90.02
2022-12-17T09:21:47.638Z,89.96
2022-12-17T09:24:34.881Z,89.88
2022-12-17T09:27:20.794Z,89.91
2022-12-17T09:30:07.092Z,89.59
2022-12-17T09:32:53.060Z,89.53
2022-12-17T09:35:38.955Z,89.37
2022-12-17T09:38:24.684Z,89.21
2022-12-17T09:41:10.847Z,89.05
2022-12-17T09:44:27.570Z,88.98
2022-12-17T09:47:19.034Z,88.97
2022-12-17T09:50:05.999Z,89.11
2022-12-17T09:52:57.263Z,89.08
2022-12-17T09:55:51.870Z,89.07
2022-12-17T09:58:43.722Z,89.01
2022-12-17T10:01:40.423Z,88.96
2022-12-17T10:04:37.762Z,88.87
2022-12-17T10:07:34.649Z,88.89
2022-12-17T10:10:37.887Z,88.69
2022-12-17T10:13:31.477Z,88.85
2022-12-17T10:16:18.626Z,89.04
2022-12-17T10:19:05.874Z,89.01
2022-12-17T10:21:54.194Z,89.07
2022-12-17T10:24:40.402Z,89.23
2022-12-17T10:27:34.111Z,89.30
2022-12-17T10:30:20.147Z,89.48
2022-12-17T10:33:15.509Z,89.53
2022-12-17T10:36:01.808Z,89.61
2022-12-17T10:38:49.500Z,89.68
2022-12-17T10:41:48.885Z,89.67
2022-12-17T10:44:53.902Z,89.63
2022-12-17T10:47:46.310Z,89.69
2022-12-17T10:50:37.516Z,89.86
2022-12-17T10:53:37.568Z,90.05
2022-12-17T10:56:25.195Z,90.20
2022-12-17T10:59:12.320Z,90.25
2022-12-17T11:02:00.885Z,90.29
2022-12-17T11:04:55.980Z,90.03
2022-12-17T11:07:55.533Z,89.72
2022-12-17T11:10:44.312Z,89.45
2022-12-17T11:14:01.260Z,89.18
2022-12-17T11:17:16.641Z,89.20
2022-12-17T11:20:17.033Z,89.61
2022-12-17T11:23:08.267Z,89.99
2022-12-17T11:26:21.040Z,90.31
2022-12-17T11:29:07.271Z,92.72
2022-12-17T11:32:25.438Z,93.69
2022-12-17T11:35:26.151Z,94.07
2022-12-17T11:38:32.863Z,94.10
2022-12-17T11:41:54.608Z,93.82
2022-12-17T11:45:12.834Z,93.19
2022-12-17T11:48:18.315Z,92.85
2022-12-17T11:51:19.071Z,92.78
2022-12-17T11:54:27.643Z,93.03
2022-12-17T11:57:28.034Z,92.90
2022-12-17T12:00:28.723Z,92.85
2022-12-17T12:03:48.975Z,92.78
2022-12-17T12:07:13.114Z,92.62
2022-12-17T12:10:24.590Z,92.35
2022-12-17T12:13:31.494Z,92.38
2022-12-17T12:16:43.963Z,92.07
2022-12-17T12:19:46.233Z,92.02
2022-12-17T12:22:45.726Z,91.96
2022-12-17T12:26:03.485Z,91.62
2022-12-17T12:29:13.249Z,91.21
2022-12-17T12:32:21.802Z,90.56
2022-12-17T12:35:11.359Z,90.43
2022-12-17T12:37:57.961Z,89.86
2022-12-17T12:41:13.145Z,89.25
2022-12-17T12:44:04.836Z,88.93
2022-12-17T12:47:08.674Z,88.17
2022-12-17T12:50:02.740Z,88.21
2022-12-17T12:52:49.823Z,88.17
2022-12-17T12:55:35.534Z,87.48
2022-12-17T12:58:48.895Z,87.45
2022-12-17T13:01:35.970Z,86.40
2022-12-17T13:04:46.079Z,86.91
2022-12-17T13:07:27.928Z,86.88
2022-12-17T13:09:58.434Z,87.07
2022-12-17T13:12:34.222Z,87.58
2022-12-17T13:15:16.391Z,88.51
2022-12-17T13:18:10.878Z,89.04
2022-12-17T13:20:38.432Z,88.47
2022-12-17T13:23:16.949Z,86.65
2022-12-17T13:25:44.769Z,86.96
2022-12-17T13:28:30.550Z,86.96
2022-12-17T13:31:08.232Z,87.49
2022-12-17T13:33:45.252Z,88.03
2022-12-17T13:36:50.356Z,88.15
2022-12-17T13:39:43.867Z,88.19
2022-12-17T13:42:27.730Z,88.43
2022-12-17T13:44:55.869Z,88.29
2022-12-17T13:47:30.131Z,88.48
2022-12-17T13:50:32.619Z,87.76
2022-12-17T13:52:32.786Z,86.47
2022-12-17T13:55:10.254Z,85.70
2022-12-17T13:57:42.517Z,84.83
2022-12-17T14:00:24.071Z,85.39
2022-12-17T14:02:53.208Z,85.47
2022-12-17T14:05:26.676Z,83.81
2022-12-17T14:08:01.201Z,80.76
2022-12-17T14:10:29.906Z,81.31
2022-12-17T14:13:10.161Z,81.37
2022-12-17T14:15:38.031Z,82.02
2022-12-17T14:18:12.331Z,81.59
2022-12-17T14:20:40.354Z,81.61
2022-12-17T14:23:16.503Z,82.10
2022-12-17T14:25:44.651Z,82.26
2022-12-17T14:28:34.758Z,81.36
2022-12-17T14:31:27.947Z,81.72
2022-12-17T14:34:08.376Z,81.30
2022-12-17T14:36:39.415Z,81.74
2022-12-17T14:39:28.384Z,82.56
2022-12-17T14:42:17.956Z,82.29
2022-12-17T14:44:53.171Z,82.17
2022-12-17T14:47:34.160Z,81.79
2022-12-17T14:50:19.105Z,82.10
2022-12-17T14:52:52.630Z,82.30
2022-12-17T14:55:39.626Z,82.54
2022-12-17T14:58:18.011Z,82.81
2022-12-17T15:00:56.330Z,81.11
2022-12-17T15:03:29.523Z,82.05
2022-12-17T15:06:07.618Z,81.88
2022-12-17T15:08:45.664Z,81.75
2022-12-17T15:11:20.214Z,81.30
2022-12-17T15:13:53.001Z,81.93
2022-12-17T15:16:18.429Z,82.11
2022-12-17T15:18:46.234Z,81.41
2022-12-17T15:21:15.209Z,81.87
2022-12-17T15:23:45.241Z,80.88
2022-12-17T15:26:14.652Z,80.74
2022-12-17T15:28:43.007Z,79.38
2022-12-17T15:31:13.690Z,79.49
2022-12-17T15:33:42.274Z,80.02
2022-12-17T15:36:12.128Z,80.53
2022-12-17T15:38:40.202Z,80.22
2022-12-17T15:41:26.449Z,80.32
2022-12-17T15:43:54.094Z,79.88
2022-12-17T15:46:21.557Z,79.07
2022-12-17T15:48:50.636Z,79.55
2022-12-17T15:51:20.502Z,78.88
2022-12-17T15:53:49.126Z,79.04
2022-12-17T15:56:26.572Z,79.27
2022-12-17T15:58:58.814Z,79.36
2022-12-17T16:01:26.966Z,79.84
2022-12-17T16:03:54.960Z,79.77
2022-12-17T16:06:22.654Z,79.52
2022-12-17T16:08:50.103Z,79.69
2022-12-17T16:11:17.972Z,79.53
2022-12-17T16:13:45.625Z,79.13
2022-12-17T16:16:14.223Z,79.00
2022-12-17T16:18:42.811Z,77.74
2022-12-17T16:21:10.410Z,77.46
2022-12-17T16:23:38.552Z,77.71
2022-12-17T16:26:08.674Z,77.70
2022-12-17T16:28:37.179Z,77.97
2022-12-17T16:31:13.633Z,78.57
2022-12-17T16:33:43.379Z,78.60
2022-12-17T16:36:17.827Z,78.91
2022-12-17T16:38:51.595Z,77.70
2022-12-17T16:41:21.092Z,76.63
2022-12-17T16:43:49.438Z,77.32
2022-12-17T16:46:30.273Z,77.15
2022-12-17T16:49:13.969Z,76.55
2022-12-17T16:51:42.475Z,77.36
2022-12-17T16:54:16.900Z,77.51
2022-12-17T16:56:46.187Z,77.54
2022-12-17T16:59:16.498Z,78.15
2022-12-17T17:01:47.716Z,78.14
2022-12-17T17:04:17.979Z,78.10
2022-12-17T17:06:52.735Z,77.83
2022-12-17T17:09:21.640Z,78.36
2022-12-17T17:11:52.014Z,78.61
2022-12-17T17:14:19.887Z,78.62
2022-12-17T17:16:47.697Z,78.43
2022-12-17T17:19:15.747Z,77.43
2022-12-17T17:21:53.440Z,77.36
2022-12-17T17:24:24.678Z,76.81
2022-12-17T17:26:54.659Z,77.15
2022-12-17T17:29:22.623Z,77.30
2022-12-17T17:34:19.825Z,75.52
2022-12-17T17:36:47.591Z,76.38
2022-12-17T17:39:15.248Z,76.48
2022-12-17T17:41:42.933Z,76.54
2022-12-17T17:44:13.316Z,76.95
2022-12-17T17:46:41.331Z,76.86
2022-12-17T17:49:10.010Z,77.10
2022-12-17T17:54:14.455Z,77.44
2022-12-17T17:56:45.283Z,77.73
2022-12-17T17:59:18.127Z,77.89
2022-12-17T18:01:49.906Z,77.97
2022-12-17T18:04:21.381Z,78.03
2022-12-17T18:07:16.489Z,78.62
2022-12-17T18:09:18.465Z,78.69
2022-12-17T18:11:46.084Z,78.77
2022-12-17T18:14:13.666Z,79.12
2022-12-17T18:16:44.638Z,79.40
2022-12-17T18:19:19.997Z,79.53
2022-12-17T18:21:48.656Z,79.87
2022-12-17T18:24:22.326Z,80.01
2022-12-17T18:26:51.512Z,80.26
2022-12-17T18:29:26.393Z,80.45
2022-12-17T18:31:56.156Z,80.84
2022-12-17T18:34:27.760Z,80.63
2022-12-17T18:36:57.123Z,80.60
2022-12-17T18:39:26.789Z,80.71
2022-12-17T18:42:13.147Z,80.77
2022-12-17T18:44:44.966Z,80.23
2022-12-17T18:47:12.710Z,80.33
2022-12-17T18:49:40.316Z,80.01
2022-12-17T18:52:13.166Z,80.19
2022-12-17T18:54:38.098Z,79.69
2022-12-17T18:57:05.697Z,79.53
2022-12-17T18:59:34.051Z,79.27
2022-12-17T19:02:02.123Z,79.37
2022-12-17T19:04:31.507Z,79.27
2022-12-17T19:06:59.574Z,79.38
2022-12-17T19:09:36.674Z,79.59
2022-12-17T19:12:07.201Z,79.53
2022-12-17T19:14:35.649Z,79.67
2022-12-17T19:17:04.567Z,79.65
2022-12-17T19:19:32.795Z,79.45
2022-12-17T19:22:01.574Z,79.73
2022-12-17T19:24:31.507Z,80.01
2022-12-17T19:26:58.999Z,80.12
2022-12-17T19:29:26.399Z,80.09
2022-12-17T19:31:54.438Z,80.07
2022-12-17T19:34:22.153Z,80.27
2022-12-17T19:36:51.586Z,80.09
2022-12-17T19:39:20.131Z,79.76
2022-12-17T19:41:50.874Z,79.87
2022-12-17T19:44:22.156Z,79.90
2022-12-17T19:46:49.880Z,79.92
2022-12-17T19:49:18.815Z,79.68
2022-12-17T19:51:46.354Z,79.75
2022-12-17T19:54:16.095Z,79.88
2022-12-17T19:56:45.164Z,79.82
2022-12-17T19:59:13.883Z,79.76
2022-12-17T20:01:44.705Z,79.72
2022-12-17T20:04:15.415Z,79.71
2022-12-17T20:06:44.167Z,79.41
2022-12-17T20:09:13.290Z,79.27
2022-12-17T20:11:42.152Z,79.22
2022-12-17T20:14:17.292Z,79.02
2022-12-17T20:16:57.963Z,79.24
2022-12-17T20:19:30.589Z,79.09
2022-12-17T20:22:00.614Z,79.30
2022-12-17T20:24:31.491Z,79.09
2022-12-17T20:26:58.656Z,79.07
2022-12-17T20:29:27.139Z,79.14
2022-12-17T20:31:55.523Z,79.12
2022-12-17T20:34:24.394Z,79.37
2022-12-17T20:36:53.521Z,79.26
2022-12-17T20:39:26.469Z,79.11
2022-12-17T20:41:51.219Z,79.25
2022-12-17T20:44:18.451Z,79.42
2022-12-17T20:46:46.039Z,79.47
2022-12-17T20:49:14.306Z,79.42
2022-12-17T20:51:43.055Z,79.27
2022-12-17T20:54:11.116Z,79.22
2022-12-17T20:56:40.111Z,78.97
2022-12-17T20:59:12.901Z,79.38
2022-12-17T21:01:40.461Z,78.71
2022-12-17T21:04:08.240Z,78.78
2022-12-17T21:06:42.991Z,76.91
2022-12-17T21:09:12.372Z,78.15
2022-12-17T21:11:40.739Z,78.86
2022-12-17T21:14:12.060Z,79.14
2022-12-17T21:16:41.578Z,79.18
2022-12-17T21:19:12.984Z,79.30
2022-12-17T21:21:40.842Z,79.19
2022-12-17T21:24:10.150Z,79.02
2022-12-17T21:26:42.327Z,78.93
2022-12-17T21:29:10.807Z,78.54
2022-12-17T21:31:46.966Z,77.63
2022-12-17T21:34:22.399Z,76.31
2022-12-17T21:36:50.955Z,77.20
2022-12-17T21:39:19.878Z,76.42
2022-12-17T21:41:49.212Z,77.16
2022-12-17T21:44:17.081Z,77.14
2022-12-17T21:46:46.488Z,77.51
2022-12-17T21:49:15.811Z,74.88
2022-12-17T21:51:44.120Z,74.29
2022-12-17T21:54:17.296Z,73.89
2022-12-17T21:56:41.400Z,75.13
2022-12-17T21:59:12.118Z,75.32
2022-12-17T22:01:39.869Z,75.37
2022-12-17T22:04:07.501Z,75.64
2022-12-17T22:06:44.116Z,75.20
2022-12-17T22:09:11.300Z,75.00
2022-12-17T22:11:36.594Z,75.45
2022-12-17T22:14:11.703Z,74.82
2022-12-17T22:16:45.265Z,74.54
2022-12-17T22:19:20.883Z,75.08
2022-12-17T22:21:50.961Z,75.50
2022-12-17T22:24:24.237Z,75.49
2022-12-17T22:26:54.008Z,75.42
2022-12-17T22:29:40.347Z,75.37
2022-12-17T22:32:29.567Z,75.54
2022-12-17T22:36:01.410Z,75.04
2022-12-17T22:41:18.110Z,75.35
2022-12-17T22:43:54.346Z,75.76
2022-12-17T22:44:45.479Z,75.76
2022-12-17T22:45:15.266Z,75.59
2022-12-17T22:47:43.359Z,75.68
2022-12-17T22:50:11.259Z,74.86
2022-12-17T22:52:39.163Z,74.98
2022-12-17T22:55:08.415Z,75.52
2022-12-17T22:57:38.543Z,75.75
2022-12-17T23:00:17.045Z,75.92
2022-12-17T23:02:44.846Z,76.22
2022-12-17T23:05:14.039Z,76.59
2022-12-17T23:07:41.891Z,76.78
2022-12-17T23:10:10.534Z,77.00
2022-12-17T23:12:51.964Z,77.04
2022-12-17T23:15:33.272Z,77.33
2022-12-17T23:18:03.746Z,77.76
2022-12-17T23:20:33.913Z,77.72
2022-12-17T23:23:01.876Z,77.30
2022-12-17T23:25:30.937Z,77.40
2022-12-17T23:27:58.666Z,77.25
2022-12-17T23:30:26.409Z,76.79
2022-12-17T23:32:53.971Z,76.73
2022-12-17T23:35:21.262Z,77.00
2022-12-17T23:37:49.035Z,76.79
2022-12-17T23:40:16.921Z,76.56
2022-12-17T23:42:44.456Z,76.65
2022-12-17T23:45:12.058Z,76.59
2022-12-17T23:47:40.772Z,76.74
2022-12-17T23:50:10.670Z,76.40
2022-12-17T23:52:38.612Z,76.71
2022-12-17T23:55:08.103Z,76.04
2022-12-17T23:57:35.711Z,76.17
